createdAt,value
2018-10-18T00:00:30.492Z,23.07
2018-10-18T00:03:02.566Z,23.15
2018-10-18T00:05:34.636Z,23.38
2018-10-18T00:08:06.721Z,22.25
2018-10-18T00:10:38.802Z,23.65
2018-10-18T00:13:10.906Z,25.57
2018-10-18T00:15:42.986Z,22.50
2018-10-18T00:18:15.119Z,22.70
2018-10-18T00:20:47.158Z,23.22
2018-10-18T00:23:19.312Z,23.55
2018-10-18T00:25:51.412Z,22.93
2018-10-18T00:28:23.549Z,22.48
2018-10-18T00:30:55.613Z,23.55
2018-10-18T00:33:27.659Z,22.50
2018-10-18T00:35:59.796Z,22.77
2018-10-18T00:38:31.784Z,21.93
2018-10-18T00:41:04.419Z,22.10
2018-10-18T00:43:36.513Z,21.80
2018-10-18T00:46:08.715Z,21.65
2018-10-18T00:48:40.781Z,22.17
2018-10-18T00:51:12.890Z,21.90
2018-10-18T00:53:44.964Z,21.23
2018-10-18T00:56:17.107Z,21.60
2018-10-18T00:58:49.140Z,22.07
2018-10-18T01:01:21.288Z,22.30
2018-10-18T01:03:53.432Z,22.48
2018-10-18T01:06:25.546Z,21.93
2018-10-18T01:08:57.610Z,22.45
2018-10-18T01:11:29.657Z,21.12
2018-10-18T01:14:01.745Z,23.27
2018-10-18T01:16:34.103Z,22.52
2018-10-18T01:19:06.212Z,22.73
2018-10-18T01:21:38.321Z,22.07
2018-10-18T01:24:10.515Z,24.45
2018-10-18T01:26:42.560Z,20.68
2018-10-18T01:29:14.614Z,22.93
2018-10-18T01:31:46.687Z,21.23
2018-10-18T01:34:18.812Z,22.93
2018-10-18T01:36:50.915Z,21.45
2018-10-18T01:39:23.089Z,21.82
2018-10-18T01:41:55.158Z,22.05
2018-10-18T01:44:27.210Z,21.52
2018-10-18T01:46:59.279Z,20.40
2018-10-18T01:49:31.361Z,22.05
2018-10-18T01:52:03.548Z,22.60
2018-10-18T01:54:35.577Z,22.25
2018-10-18T01:57:07.699Z,23.18
2018-10-18T01:59:39.785Z,24.60
2018-10-18T02:02:11.908Z,22.48
2018-10-18T02:04:43.911Z,23.18
2018-10-18T02:07:16.009Z,23.07
2018-10-18T02:09:48.068Z,24.52
2018-10-18T02:12:20.149Z,25.25
2018-10-18T02:14:52.201Z,22.98
2018-10-18T02:17:24.272Z,22.20
2018-10-18T02:19:56.338Z,22.35
2018-10-18T02:22:28.421Z,22.02
2018-10-18T02:25:00.495Z,21.85
2018-10-18T02:27:32.492Z,21.12
2018-10-18T02:30:04.945Z,19.85
2018-10-18T02:32:36.995Z,21.55
2018-10-18T02:35:09.022Z,20.10
2018-10-18T02:37:41.099Z,21.85
2018-10-18T02:40:13.174Z,22.50
2018-10-18T02:42:45.326Z,21.70
2018-10-18T02:45:17.412Z,24.20
2018-10-18T02:47:49.541Z,23.25
2018-10-18T02:50:21.718Z,21.75
2018-10-18T02:52:53.816Z,22.20
2018-10-18T02:55:25.974Z,21.60
2018-10-18T02:57:58.127Z,23.07
2018-10-18T03:00:30.324Z,21.33
2018-10-18T03:03:02.359Z,21.77
2018-10-18T03:05:34.397Z,23.30
2018-10-18T03:08:06.554Z,20.75
2018-10-18T03:10:38.634Z,22.77
2018-10-18T03:13:10.705Z,22.15
2018-10-18T03:15:42.861Z,21.40
2018-10-18T03:18:14.982Z,20.88
2018-10-18T03:20:47.062Z,23.42
2018-10-18T03:23:19.183Z,23.70
2018-10-18T03:25:51.215Z,23.22
2018-10-18T03:28:23.329Z,22.22
2018-10-18T03:30:55.415Z,22.48
2018-10-18T03:33:27.554Z,23.65
2018-10-18T03:35:59.702Z,23.90
2018-10-18T03:38:31.792Z,24.47
2018-10-18T03:41:04.044Z,23.07
2018-10-18T03:43:36.187Z,24.50
2018-10-18T03:46:08.347Z,25.10
2018-10-18T03:48:40.436Z,23.67
2018-10-18T03:51:12.529Z,24.75
2018-10-18T03:53:44.647Z,25.85
2018-10-18T03:56:16.695Z,25.17
2018-10-18T03:58:48.799Z,24.55
2018-10-18T04:01:20.977Z,25.60
2018-10-18T04:03:53.037Z,25.70
2018-10-18T04:06:25.198Z,26.97
2018-10-18T04:08:57.255Z,24.95
2018-10-18T04:11:29.354Z,24.63
2018-10-18T04:14:01.429Z,24.07
2018-10-18T04:16:33.480Z,24.98
2018-10-18T04:19:05.508Z,25.85
2018-10-18T04:21:37.628Z,25.40
2018-10-18T04:24:09.795Z,26.02
2018-10-18T04:26:41.852Z,24.00
2018-10-18T04:29:13.941Z,25.48
2018-10-18T04:31:45.983Z,23.57
2018-10-18T04:34:18.040Z,25.35
2018-10-18T04:36:50.122Z,24.75
2018-10-18T04:39:22.175Z,24.90
2018-10-18T04:41:54.212Z,25.08
2018-10-18T04:44:26.410Z,25.40
2018-10-18T04:46:58.560Z,26.23
2018-10-18T04:49:30.644Z,25.32
2018-10-18T04:52:02.873Z,23.83
2018-10-18T04:54:34.969Z,24.00
2018-10-18T04:57:07.070Z,26.45
2018-10-18T04:59:39.189Z,24.25
2018-10-18T05:02:11.273Z,24.80
2018-10-18T05:04:54.839Z,24.05
2018-10-18T05:07:27.034Z,25.27
2018-10-18T05:09:59.152Z,25.27
2018-10-18T05:12:31.330Z,24.80
2018-10-18T05:15:03.833Z,24.75
2018-10-18T05:17:35.971Z,23.42
2018-10-18T05:20:08.124Z,24.75
2018-10-18T05:22:40.164Z,23.42
2018-10-18T05:25:12.355Z,23.77
2018-10-18T05:27:44.390Z,27.17
2018-10-18T05:30:16.489Z,24.40
2018-10-18T05:32:48.609Z,25.68
2018-10-18T05:35:20.782Z,24.63
2018-10-18T05:37:52.910Z,26.25
2018-10-18T05:40:24.952Z,27.67
2018-10-18T05:42:57.193Z,23.67
2018-10-18T05:45:29.252Z,24.15
2018-10-18T05:48:01.424Z,25.20
2018-10-18T05:50:33.510Z,24.00
2018-10-18T05:53:05.781Z,24.70
2018-10-18T05:55:37.732Z,25.08
2018-10-18T05:58:09.852Z,25.32
2018-10-18T06:00:42.044Z,23.52
2018-10-18T06:03:14.151Z,26.05
2018-10-18T06:05:46.311Z,25.92
2018-10-18T06:08:18.439Z,26.60
2018-10-18T06:11:01.945Z,28.45
2018-10-18T06:13:34.118Z,26.97
2018-10-18T06:16:06.314Z,26.77
2018-10-18T06:18:38.523Z,27.17
2018-10-18T06:21:10.672Z,24.45
2018-10-18T06:23:42.762Z,26.97
2018-10-18T06:26:14.996Z,27.55
2018-10-18T06:28:47.595Z,27.62
2018-10-18T06:31:19.690Z,27.30
2018-10-18T06:33:51.837Z,25.88
2018-10-18T06:36:23.968Z,26.42
2018-10-18T06:38:56.153Z,28.15
2018-10-18T06:41:28.258Z,28.77
2018-10-18T06:44:00.543Z,29.25
2018-10-18T06:46:32.683Z,29.42
2018-10-18T06:50:08.741Z,27.52
2018-10-18T06:52:40.967Z,28.62
2018-10-18T06:55:13.255Z,27.95
2018-10-18T06:57:45.424Z,28.95
2018-10-18T07:00:22.780Z,28.38
2018-10-18T07:02:54.979Z,28.17
2018-10-18T07:05:27.108Z,27.87
2018-10-18T07:07:59.253Z,27.20
2018-10-18T07:10:31.437Z,27.15
2018-10-18T07:13:03.717Z,29.12
2018-10-18T07:15:35.872Z,27.20
2018-10-18T07:18:08.030Z,27.32
2018-10-18T07:20:40.155Z,26.42
2018-10-18T07:23:12.271Z,26.85
2018-10-18T07:25:44.386Z,27.25
2018-10-18T07:28:16.528Z,25.72
2018-10-18T07:30:48.764Z,26.97
2018-10-18T07:33:20.894Z,25.82
2018-10-18T07:35:53.081Z,25.68
2018-10-18T07:38:25.233Z,26.93
2018-10-18T07:40:57.430Z,27.30
2018-10-18T07:43:29.519Z,24.57
2018-10-18T07:46:01.795Z,26.75
2018-10-18T07:48:34.023Z,24.80
2018-10-18T07:51:06.091Z,24.03
2018-10-18T07:53:38.284Z,23.00
2018-10-18T07:56:10.304Z,22.40
2018-10-18T07:58:42.504Z,22.10
2018-10-18T08:01:14.601Z,22.60
2018-10-18T08:03:46.896Z,22.67
2018-10-18T08:06:19.016Z,21.73
2018-10-18T08:08:51.381Z,21.57
2018-10-18T08:11:23.716Z,21.30
2018-10-18T08:13:55.785Z,20.00
2018-10-18T08:16:30.128Z,21.40
2018-10-18T08:19:02.827Z,21.70
2018-10-18T08:21:35.412Z,21.57
2018-10-18T08:24:07.559Z,21.37
2018-10-18T08:26:39.998Z,20.90
2018-10-18T08:29:12.192Z,21.60
2018-10-18T08:31:45.011Z,22.33
2018-10-18T08:34:17.902Z,22.33
2018-10-18T08:36:50.080Z,20.90
2018-10-18T08:39:22.302Z,22.40
2018-10-18T08:41:54.433Z,21.03
2018-10-18T08:44:27.462Z,21.43
2018-10-18T08:46:59.680Z,21.90
2018-10-18T08:49:31.615Z,22.53
2018-10-18T08:52:03.830Z,23.30
2018-10-18T08:54:35.948Z,23.27
2018-10-18T08:57:08.083Z,23.07
2018-10-18T08:59:40.452Z,22.77
2018-10-18T09:02:12.452Z,21.37
2018-10-18T09:04:44.695Z,23.60
2018-10-18T09:07:16.892Z,23.93
2018-10-18T09:09:49.059Z,21.30
2018-10-18T09:12:21.306Z,22.13
2018-10-18T09:14:53.379Z,22.00
2018-10-18T09:17:25.652Z,22.50
2018-10-18T09:19:58.443Z,23.30
2018-10-18T09:22:30.599Z,23.50
2018-10-18T09:25:02.773Z,23.50
2018-10-18T09:27:34.943Z,23.90
2018-10-18T09:30:08.570Z,21.77
2018-10-18T09:32:40.772Z,23.40
2018-10-18T09:35:13.016Z,22.77
2018-10-18T09:37:45.105Z,23.60
2018-10-18T09:40:17.167Z,22.33
2018-10-18T09:42:49.285Z,22.50
2018-10-18T09:45:21.421Z,21.70
2018-10-18T09:47:53.745Z,23.37
2018-10-18T09:50:25.974Z,23.50
2018-10-18T09:52:58.086Z,23.30
2018-10-18T09:55:30.309Z,23.70
2018-10-18T09:58:02.395Z,22.40
2018-10-18T10:00:40.280Z,24.87
2018-10-18T10:03:14.105Z,23.60
2018-10-18T10:05:46.355Z,23.50
2018-10-18T10:08:18.540Z,23.60
2018-10-18T10:10:50.700Z,24.33
2018-10-18T10:13:22.972Z,22.30
2018-10-18T10:15:54.927Z,22.60
2018-10-18T10:18:26.972Z,22.63
2018-10-18T10:20:59.127Z,23.27
2018-10-18T10:23:31.163Z,23.33
2018-10-18T10:26:03.568Z,23.07
2018-10-18T10:28:35.679Z,22.93
2018-10-18T10:31:08.400Z,23.87
2018-10-18T10:33:40.472Z,24.37
2018-10-18T10:36:12.654Z,21.73
2018-10-18T10:38:44.848Z,22.50
2018-10-18T10:41:17.180Z,23.87
2018-10-18T10:43:49.258Z,21.37
2018-10-18T10:46:21.699Z,23.10
2018-10-18T10:48:53.845Z,23.80
2018-10-18T10:51:25.963Z,20.80
2018-10-18T10:53:58.059Z,22.50
2018-10-18T10:56:30.251Z,22.53
2018-10-18T10:59:10.969Z,23.67
2018-10-18T11:01:43.079Z,22.40
2018-10-18T11:04:15.276Z,22.13
2018-10-18T11:06:47.369Z,22.10
2018-10-18T11:09:19.662Z,21.97
2018-10-18T11:11:51.814Z,20.53
2018-10-18T11:14:23.844Z,22.93
2018-10-18T11:16:55.985Z,22.20
2018-10-18T11:19:28.066Z,22.60
2018-10-18T11:22:00.264Z,22.03
2018-10-18T11:24:32.399Z,21.57
2018-10-18T11:27:04.641Z,22.90
2018-10-18T11:29:36.939Z,21.07
2018-10-18T11:32:09.217Z,20.30
2018-10-18T11:34:41.272Z,20.77
2018-10-18T11:37:13.414Z,21.30
2018-10-18T11:39:45.508Z,19.30
2018-10-18T11:42:17.909Z,20.40
2018-10-18T11:44:49.952Z,20.80
2018-10-18T11:47:22.411Z,20.10
2018-10-18T11:49:54.605Z,21.53
2018-10-18T11:52:26.867Z,20.10
2018-10-18T11:54:58.996Z,19.90
2018-10-18T11:57:31.213Z,20.97
2018-10-18T12:00:04.245Z,20.00
2018-10-18T12:02:36.532Z,20.70
2018-10-18T12:05:08.819Z,19.50
2018-10-18T12:07:40.939Z,20.10
2018-10-18T12:10:13.452Z,19.10
2018-10-18T12:12:45.761Z,19.77
2018-10-18T12:15:17.926Z,20.70
2018-10-18T12:17:50.037Z,19.90
2018-10-18T12:20:22.194Z,18.10
2018-10-18T12:22:54.383Z,20.70
2018-10-18T12:25:26.442Z,21.97
2018-10-18T12:27:58.585Z,22.13
2018-10-18T12:30:30.675Z,20.77
2018-10-18T12:33:02.784Z,21.30
2018-10-18T12:35:34.868Z,20.23
2018-10-18T12:38:07.121Z,19.80
2018-10-18T12:40:39.198Z,19.80
2018-10-18T12:43:12.963Z,20.80
2018-10-18T12:45:45.027Z,20.47
2018-10-18T12:48:19.206Z,20.20
2018-10-18T12:50:51.677Z,19.60
2018-10-18T12:53:24.252Z,20.13
2018-10-18T12:55:56.741Z,20.37
2018-10-18T12:58:29.300Z,20.23
2018-10-18T13:01:01.969Z,18.73
2018-10-18T13:03:34.663Z,18.73
2018-10-18T13:06:07.463Z,19.43
2018-10-18T13:08:40.329Z,19.70
2018-10-18T13:11:13.222Z,19.13
2018-10-18T13:13:46.001Z,18.93
2018-10-18T13:16:18.677Z,19.20
2018-10-18T13:18:51.875Z,19.93
2018-10-18T13:21:24.661Z,19.50
2018-10-18T13:23:57.542Z,18.10
2018-10-18T13:26:30.324Z,18.43
2018-10-18T13:29:04.134Z,18.20
2018-10-18T13:31:37.236Z,19.40
2018-10-18T13:34:10.583Z,18.50
2018-10-18T13:36:43.109Z,17.80
2018-10-18T13:39:16.157Z,17.93
2018-10-18T13:41:48.647Z,17.87
2018-10-18T13:44:21.227Z,17.43
2018-10-18T13:46:53.827Z,17.57
2018-10-18T13:49:26.233Z,15.27
2018-10-18T13:51:58.782Z,17.60
2018-10-18T13:54:31.574Z,16.73
2018-10-18T13:57:04.656Z,17.50
2018-10-18T13:59:48.603Z,16.80
2018-10-18T14:02:21.446Z,18.67
2018-10-18T14:04:53.860Z,16.37
2018-10-18T14:07:26.851Z,16.20
2018-10-18T14:09:59.432Z,16.03
2018-10-18T14:12:32.216Z,15.57
2018-10-18T14:15:05.712Z,15.90
2018-10-18T14:17:38.424Z,16.40
2018-10-18T14:20:11.444Z,15.30
2018-10-18T14:22:43.861Z,17.10
2018-10-18T14:25:16.447Z,16.10
2018-10-18T14:27:49.129Z,15.00
2018-10-18T14:30:21.782Z,16.13
2018-10-18T14:32:54.385Z,16.03
2018-10-18T14:35:26.869Z,16.13
2018-10-18T14:37:59.786Z,16.90
2018-10-18T14:40:32.632Z,17.40
2018-10-18T14:43:05.419Z,17.87
2018-10-18T14:45:38.110Z,14.87
2018-10-18T14:48:10.775Z,16.60
2018-10-18T14:50:43.981Z,15.33
2018-10-18T14:53:16.453Z,15.67
2018-10-18T14:55:48.932Z,15.90
2018-10-18T14:58:21.821Z,15.30
2018-10-18T15:00:54.595Z,14.80
2018-10-18T15:03:27.276Z,14.77
2018-10-18T15:05:59.959Z,13.87
2018-10-18T15:08:33.152Z,15.67
2018-10-18T15:11:06.105Z,15.80
2018-10-18T15:13:38.728Z,13.87
2018-10-18T15:16:11.522Z,14.57
2018-10-18T15:18:45.165Z,15.43
2018-10-18T15:21:18.148Z,13.60
2018-10-18T15:23:50.790Z,14.57
2018-10-18T15:26:23.466Z,13.80
2018-10-18T15:28:55.759Z,14.17
2018-10-18T15:31:28.312Z,14.27
2018-10-18T15:34:01.096Z,12.93
2018-10-18T15:36:33.893Z,14.30
2018-10-18T15:39:08.019Z,13.50
2018-10-18T15:41:41.093Z,15.40
2018-10-18T15:44:13.735Z,13.00
2018-10-18T15:46:46.148Z,12.03
2018-10-18T15:49:18.827Z,13.13
2018-10-18T15:51:51.512Z,12.67
2018-10-18T15:54:24.351Z,12.20
2018-10-18T15:56:56.887Z,11.00
2018-10-18T15:59:29.349Z,11.43
2018-10-18T16:02:01.725Z,12.03
2018-10-18T16:04:34.199Z,11.57
2018-10-18T16:07:06.984Z,12.30
2018-10-18T16:09:39.772Z,11.57
2018-10-18T16:12:12.462Z,14.00
2018-10-18T16:14:45.232Z,10.93
2018-10-18T16:17:17.781Z,13.80
2018-10-18T16:19:50.399Z,14.27
2018-10-18T16:22:23.082Z,12.77
2018-10-18T16:24:55.765Z,13.17
2018-10-18T16:27:28.443Z,12.63
2018-10-18T16:30:00.968Z,11.83
2018-10-18T16:32:33.509Z,12.37
2018-10-18T16:35:06.960Z,12.10
2018-10-18T16:37:42.449Z,14.03
2018-10-18T16:40:15.234Z,12.20
2018-10-18T16:42:48.323Z,14.37
2018-10-18T16:45:25.214Z,12.87
2018-10-18T16:47:57.879Z,12.90
2018-10-18T16:50:32.927Z,13.17
2018-10-18T16:53:05.693Z,12.90
2018-10-18T16:55:38.274Z,12.10
2018-10-18T16:58:10.564Z,12.70
2018-10-18T17:00:43.227Z,14.10
2018-10-18T17:03:15.878Z,13.30
2018-10-18T17:05:48.668Z,13.50
2018-10-18T17:08:22.616Z,13.10
2018-10-18T17:10:56.496Z,13.03
2018-10-18T17:13:29.916Z,14.87
2018-10-18T17:16:02.876Z,13.10
2018-10-18T17:21:18.670Z,12.37
2018-10-18T17:23:51.387Z,13.50
2018-10-18T17:26:24.209Z,14.43
2018-10-18T17:28:56.854Z,14.13
2018-10-18T17:31:29.426Z,14.20
2018-10-18T17:34:02.068Z,14.40
2018-10-18T17:36:34.703Z,13.27
2018-10-18T17:39:09.226Z,14.20
2018-10-18T17:41:41.702Z,14.07
2018-10-18T17:44:14.379Z,13.67
2018-10-18T17:46:46.753Z,13.73
2018-10-18T17:49:19.530Z,14.80
2018-10-18T17:51:52.324Z,15.00
2018-10-18T17:54:25.201Z,15.83
2018-10-18T17:56:57.889Z,15.67
2018-10-18T17:59:30.464Z,14.83
2018-10-18T18:02:03.285Z,15.00
2018-10-18T18:04:36.238Z,15.27
2018-10-18T18:07:08.508Z,14.87
2018-10-18T18:09:40.911Z,15.10
2018-10-18T18:12:13.467Z,15.53
2018-10-18T18:14:46.659Z,15.87
2018-10-18T18:17:19.336Z,14.60
2018-10-18T18:19:51.691Z,15.87
2018-10-18T18:22:24.293Z,16.37
2018-10-18T18:24:57.287Z,16.03
2018-10-18T18:27:29.965Z,16.90
2018-10-18T18:30:03.161Z,17.17
2018-10-18T18:32:35.945Z,15.60
2018-10-18T18:35:08.520Z,16.10
2018-10-18T18:37:40.996Z,16.37
2018-10-18T18:40:13.683Z,17.83
2018-10-18T18:42:46.362Z,18.23
2018-10-18T18:45:22.509Z,17.10
2018-10-18T18:47:55.003Z,17.03
2018-10-18T18:50:27.477Z,17.80
2018-10-18T18:53:00.120Z,16.87
2018-10-18T18:55:32.848Z,17.17
2018-10-18T18:58:05.634Z,18.70
2018-10-18T19:00:38.218Z,19.97
2018-10-18T19:03:10.926Z,19.27
2018-10-18T19:05:43.368Z,20.40
2018-10-18T19:08:16.048Z,21.30
2018-10-18T19:10:48.427Z,19.70
2018-10-18T19:13:20.735Z,18.73
2018-10-18T19:15:53.578Z,20.23
2018-10-18T19:18:26.269Z,21.33
2018-10-18T19:20:58.758Z,20.73
2018-10-18T19:23:31.225Z,23.60
2018-10-18T19:26:03.898Z,22.83
2018-10-18T19:28:36.505Z,22.53
2018-10-18T19:31:09.164Z,23.07
2018-10-18T19:33:41.939Z,24.40
2018-10-18T19:36:14.634Z,22.37
2018-10-18T19:38:47.144Z,24.27
2018-10-18T19:41:19.896Z,25.07
2018-10-18T19:43:54.078Z,22.87
2018-10-18T19:46:26.607Z,25.70
2018-10-18T19:48:59.177Z,25.17
2018-10-18T19:51:31.751Z,25.50
2018-10-18T19:54:04.829Z,26.37
2018-10-18T19:56:37.311Z,26.30
2018-10-18T19:59:09.989Z,26.93
2018-10-18T20:01:42.567Z,27.87
2018-10-18T20:04:15.353Z,27.57
2018-10-18T20:06:49.467Z,28.33
2018-10-18T20:09:21.942Z,29.00
2018-10-18T20:11:54.535Z,30.17
2018-10-18T20:14:27.200Z,28.87
2018-10-18T20:16:59.884Z,31.40
2018-10-18T20:19:32.467Z,32.03
2018-10-18T20:22:07.807Z,31.47
2018-10-18T20:24:40.466Z,30.40
2018-10-18T20:27:12.964Z,32.17
2018-10-18T20:29:45.343Z,31.70
2018-10-18T20:32:17.538Z,33.63
2018-10-18T20:34:49.879Z,33.17
2018-10-18T20:37:22.255Z,33.07
2018-10-18T20:39:54.883Z,36.00
2018-10-18T20:42:27.514Z,34.30
2018-10-18T20:44:59.952Z,35.40
2018-10-18T20:47:32.674Z,36.93
2018-10-18T20:50:05.459Z,37.30
2018-10-18T20:52:38.174Z,38.53
2018-10-18T20:55:10.931Z,39.73
2018-10-18T20:57:43.407Z,37.97
2018-10-18T21:00:16.159Z,36.17
2018-10-18T21:02:48.764Z,39.20
2018-10-18T21:05:21.099Z,37.70
2018-10-18T21:07:53.830Z,39.53
2018-10-18T21:10:26.503Z,38.47
2018-10-18T21:12:59.258Z,41.57
2018-10-18T21:15:31.769Z,41.50
2018-10-18T21:18:04.804Z,40.20
2018-10-18T21:20:37.334Z,37.00
2018-10-18T21:23:09.872Z,40.83
2018-10-18T21:25:42.392Z,40.20
2018-10-18T21:28:15.074Z,42.00
2018-10-18T21:30:47.653Z,41.37
2018-10-18T21:33:20.451Z,44.37
2018-10-18T21:35:52.922Z,40.73
2018-10-18T21:38:25.497Z,42.03
2018-10-18T21:40:58.117Z,43.17
2018-10-18T21:43:30.860Z,46.17
2018-10-18T21:46:03.756Z,45.17
2018-10-18T21:48:36.536Z,45.47
2018-10-18T21:51:09.331Z,46.60
2018-10-18T21:53:41.848Z,46.50
2018-10-18T21:56:14.573Z,48.50
2018-10-18T21:58:46.820Z,44.87
2018-10-18T22:01:20.649Z,48.40
2018-10-18T22:03:53.139Z,48.27
2018-10-18T22:06:25.580Z,47.50
2018-10-18T22:08:58.311Z,46.67
2018-10-18T22:11:31.177Z,47.50
2018-10-18T22:14:03.754Z,47.43
2018-10-18T22:16:37.313Z,50.30
2018-10-18T22:19:10.036Z,49.97
2018-10-18T22:21:42.514Z,51.33
2018-10-18T22:24:15.094Z,54.13
2018-10-18T22:26:47.675Z,51.85
2018-10-18T22:29:20.153Z,51.35
